createdAt,value
2022-09-15T00:01:00.870Z,14.19
2022-09-15T00:03:28.630Z,14.08
2022-09-15T00:05:55.662Z,14.03
2022-09-15T00:08:22.882Z,14.13
2022-09-15T00:10:52.541Z,14.36
2022-09-15T00:13:19.976Z,14.08
2022-09-15T00:15:47.078Z,14.06
2022-09-15T00:18:16.691Z,14.19
2022-09-15T00:20:44.241Z,14.46
2022-09-15T00:23:12.939Z,14.08
2022-09-15T00:25:45.820Z,14.04
2022-09-15T00:28:13.934Z,13.88
2022-09-15T00:30:49.957Z,14.03
2022-09-15T00:33:17.415Z,14.19
2022-09-15T00:35:47.305Z,14.23
2022-09-15T00:38:15.008Z,14.30
2022-09-15T00:40:50.224Z,14.34
2022-09-15T00:43:17.489Z,14.26
2022-09-15T00:45:44.977Z,14.18
2022-09-15T00:48:21.577Z,14.25
2022-09-15T00:50:52.460Z,14.38
2022-09-15T00:53:20.346Z,14.37
2022-09-15T00:55:49.083Z,14.64
2022-09-15T00:58:22.967Z,14.42
2022-09-15T01:00:55.615Z,14.36
2022-09-15T01:03:24.248Z,14.41
2022-09-15T01:05:56.809Z,14.38
2022-09-15T01:08:31.919Z,14.21
2022-09-15T01:10:58.956Z,14.35
2022-09-15T01:13:25.617Z,14.25
2022-09-15T01:16:13.708Z,14.14
2022-09-15T01:18:56.447Z,13.98
2022-09-15T01:21:42.776Z,13.80
2022-09-15T01:24:12.386Z,13.63
2022-09-15T01:26:59.634Z,13.84
2022-09-15T01:29:32.566Z,13.58
2022-09-15T01:32:24.510Z,13.54
2022-09-15T01:35:39.277Z,13.74
2022-09-15T01:38:15.975Z,13.79
2022-09-15T01:40:52.060Z,13.80
2022-09-15T01:43:20.787Z,13.58
2022-09-15T01:45:48.423Z,13.51
2022-09-15T01:48:16.505Z,13.42
2022-09-15T01:50:48.561Z,13.75
2022-09-15T01:53:18.256Z,13.57
2022-09-15T01:55:51.834Z,13.66
2022-09-15T01:58:18.456Z,13.74
2022-09-15T02:00:50.156Z,14.18
2022-09-15T02:03:35.161Z,13.97
2022-09-15T02:06:07.220Z,13.73
2022-09-15T02:09:01.394Z,13.66
2022-09-15T02:11:30.362Z,13.60
2022-09-15T02:14:00.664Z,13.67
2022-09-15T02:16:31.118Z,13.59
2022-09-15T02:19:03.957Z,13.66
2022-09-15T02:21:35.777Z,13.51
2022-09-15T02:24:10.889Z,13.03
2022-09-15T02:26:37.655Z,13.02
2022-09-15T02:29:07.611Z,13.26
2022-09-15T02:31:35.443Z,13.71
2022-09-15T02:34:10.680Z,13.61
2022-09-15T02:36:37.248Z,13.73
2022-09-15T02:39:08.731Z,13.55
2022-09-15T02:41:37.075Z,13.53
2022-09-15T02:44:04.036Z,13.53
2022-09-15T02:46:30.725Z,13.69
2022-09-15T02:48:57.324Z,13.74
2022-09-15T02:51:23.998Z,13.35
2022-09-15T02:53:50.918Z,13.60
2022-09-15T02:56:18.168Z,13.59
2022-09-15T02:58:45.103Z,13.31
2022-09-15T03:01:15.692Z,13.02
2022-09-15T03:03:46.218Z,12.89
2022-09-15T03:06:16.747Z,13.13
2022-09-15T03:08:53.449Z,13.59
2022-09-15T03:11:22.167Z,13.74
2022-09-15T03:13:52.620Z,13.62
2022-09-15T03:16:19.572Z,13.67
2022-09-15T03:18:46.873Z,13.88
2022-09-15T03:21:14.757Z,13.63
2022-09-15T03:23:42.389Z,13.54
2022-09-15T03:26:10.384Z,13.51
2022-09-15T03:28:38.280Z,13.60
2022-09-15T03:31:06.489Z,13.64
2022-09-15T03:33:33.548Z,13.78
2022-09-15T03:36:00.579Z,13.83
2022-09-15T03:38:27.417Z,13.86
2022-09-15T03:41:01.605Z,13.94
2022-09-15T03:43:30.152Z,14.08
2022-09-15T03:45:57.771Z,13.93
2022-09-15T03:48:25.032Z,13.98
2022-09-15T03:50:52.468Z,14.07
2022-09-15T03:53:20.209Z,14.35
2022-09-15T03:55:48.875Z,14.44
2022-09-15T03:58:16.839Z,14.50
2022-09-15T04:00:43.984Z,14.22
2022-09-15T04:03:10.664Z,14.29
2022-09-15T04:05:37.501Z,14.40
2022-09-15T04:08:04.753Z,14.39
2022-09-15T04:10:31.677Z,14.33
2022-09-15T04:12:58.385Z,14.40
2022-09-15T04:15:25.070Z,14.26
2022-09-15T04:17:52.132Z,14.35
2022-09-15T04:20:18.936Z,14.21
2022-09-15T04:22:45.659Z,14.11
2022-09-15T04:25:12.330Z,14.27
2022-09-15T04:27:39.095Z,14.25
2022-09-15T04:30:07.442Z,14.15
2022-09-15T04:32:35.663Z,14.09
2022-09-15T04:35:03.704Z,14.16
2022-09-15T04:37:31.212Z,14.44
2022-09-15T04:39:58.017Z,14.44
2022-09-15T04:42:25.081Z,14.47
2022-09-15T04:44:51.760Z,14.59
2022-09-15T04:47:19.418Z,14.50
2022-09-15T04:49:46.246Z,14.56
2022-09-15T04:52:12.893Z,14.66
2022-09-15T04:54:39.566Z,14.55
2022-09-15T04:57:06.153Z,14.66
2022-09-15T04:59:33.148Z,14.57
2022-09-15T05:01:59.828Z,14.57
2022-09-15T05:04:26.500Z,14.59
2022-09-15T05:06:53.109Z,14.71
2022-09-15T05:09:19.873Z,14.65
2022-09-15T05:11:46.543Z,14.55
2022-09-15T05:14:13.534Z,14.59
2022-09-15T05:16:40.515Z,14.52
2022-09-15T05:19:07.261Z,14.75
2022-09-15T05:21:33.954Z,14.69
2022-09-15T05:24:00.875Z,14.76
2022-09-15T05:26:29.045Z,14.60
2022-09-15T05:28:56.785Z,14.66
2022-09-15T05:31:26.878Z,14.68
2022-09-15T05:33:54.295Z,14.77
2022-09-15T05:36:25.034Z,14.59
2022-09-15T05:38:53.516Z,14.81
2022-09-15T05:41:23.930Z,14.78
2022-09-15T05:43:51.218Z,14.93
2022-09-15T05:46:19.467Z,14.90
2022-09-15T05:48:46.520Z,14.97
2022-09-15T05:51:13.530Z,14.98
2022-09-15T05:53:40.327Z,14.92
2022-09-15T05:56:10.282Z,15.05
2022-09-15T05:58:39.107Z,15.00
2022-09-15T06:01:08.129Z,14.99
2022-09-15T06:03:35.975Z,14.99
2022-09-15T06:06:04.481Z,15.29
2022-09-15T06:08:33.735Z,15.24
2022-09-15T06:11:06.288Z,15.27
2022-09-15T06:13:33.269Z,15.39
2022-09-15T06:16:07.989Z,15.68
2022-09-15T06:18:37.167Z,15.53
2022-09-15T06:21:05.779Z,15.54
2022-09-15T06:23:32.512Z,15.68
2022-09-15T06:26:07.685Z,15.54
2022-09-15T06:28:34.287Z,15.68
2022-09-15T06:31:01.281Z,15.59
2022-09-15T06:33:27.976Z,15.71
2022-09-15T06:35:54.688Z,15.52
2022-09-15T06:38:21.407Z,15.74
2022-09-15T06:40:56.632Z,15.61
2022-09-15T06:43:23.581Z,15.72
2022-09-15T06:45:51.035Z,15.75
2022-09-15T06:48:25.073Z,15.81
2022-09-15T06:50:56.058Z,15.80
2022-09-15T06:53:22.837Z,15.84
2022-09-15T06:55:50.193Z,15.92
2022-09-15T06:58:17.468Z,16.05
2022-09-15T07:00:44.301Z,16.01
2022-09-15T07:03:11.186Z,15.67
2022-09-15T07:05:40.928Z,15.92
2022-09-15T07:08:07.797Z,16.06
2022-09-15T07:10:34.516Z,16.03
2022-09-15T07:13:01.392Z,16.25
2022-09-15T07:15:28.125Z,16.20
2022-09-15T07:17:54.872Z,16.30
2022-09-15T07:20:21.633Z,16.50
2022-09-15T07:22:48.509Z,16.54
2022-09-15T07:25:15.230Z,16.19
2022-09-15T07:27:42.144Z,16.31
2022-09-15T07:30:09.606Z,16.46
2022-09-15T07:32:36.245Z,16.42
2022-09-15T07:35:03.274Z,16.41
2022-09-15T07:37:34.342Z,16.43
2022-09-15T07:40:04.195Z,16.28
2022-09-15T07:42:35.436Z,16.51
2022-09-15T07:45:04.626Z,16.68
2022-09-15T07:47:31.317Z,16.76
2022-09-15T07:49:58.098Z,16.88
2022-09-15T07:52:24.804Z,16.83
2022-09-15T07:54:51.443Z,16.86
2022-09-15T07:57:18.188Z,16.87
2022-09-15T07:59:45.034Z,16.91
2022-09-15T08:02:16.882Z,16.70
2022-09-15T08:04:44.428Z,16.51
2022-09-15T08:07:11.621Z,16.94
2022-09-15T08:09:39.273Z,17.04
2022-09-15T08:12:07.228Z,17.17
2022-09-15T08:14:34.666Z,17.35
2022-09-15T08:17:03.026Z,17.30
2022-09-15T08:19:34.457Z,17.08
2022-09-15T08:22:01.989Z,17.13
2022-09-15T08:24:29.115Z,17.38
2022-09-15T08:26:55.937Z,17.48
2022-09-15T08:29:23.020Z,17.28
2022-09-15T08:31:49.875Z,17.57
2022-09-15T08:34:16.912Z,17.67
2022-09-15T08:36:43.752Z,17.46
2022-09-15T08:39:10.639Z,17.50
2022-09-15T08:41:43.544Z,17.44
2022-09-15T08:44:28.876Z,17.54
2022-09-15T08:47:04.085Z,17.59
2022-09-15T08:49:50.595Z,18.04
2022-09-15T08:52:30.806Z,17.97
2022-09-15T08:55:07.160Z,17.83
2022-09-15T08:57:34.025Z,18.08
2022-09-15T09:00:01.089Z,17.97
2022-09-15T09:02:49.274Z,18.01
2022-09-15T09:05:29.558Z,18.12
2022-09-15T09:08:15.098Z,18.29
2022-09-15T09:10:59.130Z,18.07
2022-09-15T09:13:44.444Z,17.99
2022-09-15T09:16:14.264Z,18.20
2022-09-15T09:19:35.972Z,18.13
2022-09-15T09:22:10.452Z,18.19
2022-09-15T09:24:39.268Z,18.43
2022-09-15T09:27:11.624Z,17.93
2022-09-15T09:29:42.881Z,18.33
2022-09-15T09:32:21.686Z,18.33
2022-09-15T09:34:59.114Z,18.32
2022-09-15T09:37:25.931Z,18.55
2022-09-15T09:39:52.672Z,18.42
2022-09-15T09:42:19.973Z,18.76
2022-09-15T09:44:47.081Z,18.85
2022-09-15T09:47:14.079Z,18.84
2022-09-15T09:49:47.433Z,18.47
2022-09-15T09:52:35.997Z,18.58
2022-09-15T09:55:23.429Z,18.47
2022-09-15T09:57:50.556Z,18.23
2022-09-15T10:00:38.433Z,18.06
2022-09-15T10:03:32.929Z,17.97
2022-09-15T10:06:03.013Z,18.07
2022-09-15T10:08:30.022Z,18.13
2022-09-15T10:11:03.704Z,17.95
2022-09-15T10:13:30.452Z,18.36
2022-09-15T10:15:59.779Z,18.38
2022-09-15T10:18:38.315Z,18.47
2022-09-15T10:21:06.380Z,18.45
2022-09-15T10:23:34.215Z,18.57
2022-09-15T10:26:34.461Z,18.37
2022-09-15T10:29:10.522Z,18.20
2022-09-15T10:31:37.414Z,18.01
2022-09-15T10:34:27.208Z,18.34
2022-09-15T10:37:47.823Z,18.25
2022-09-15T10:40:23.465Z,18.27
2022-09-15T10:42:58.275Z,18.71
2022-09-15T10:45:26.810Z,18.51
2022-09-15T10:48:07.259Z,18.47
2022-09-15T10:51:16.100Z,18.26
2022-09-15T10:54:31.356Z,17.96
2022-09-15T11:00:12.051Z,17.72
2022-09-15T11:03:07.640Z,17.73
2022-09-15T11:05:48.995Z,17.64
2022-09-15T11:08:33.262Z,17.58
2022-09-15T11:11:17.905Z,17.53
2022-09-15T11:14:07.700Z,17.52
2022-09-15T11:16:55.547Z,17.48
2022-09-15T11:19:49.932Z,17.34
2022-09-15T11:22:17.712Z,17.28
2022-09-15T11:24:48.539Z,17.28
2022-09-15T11:27:34.869Z,16.98
2022-09-15T11:30:24.843Z,17.00
2022-09-15T11:33:14.265Z,17.11
2022-09-15T11:35:59.483Z,17.02
2022-09-15T11:38:42.797Z,16.67
2022-09-15T11:41:28.261Z,16.96
2022-09-15T11:43:54.803Z,16.96
2022-09-15T11:46:28.317Z,17.10
2022-09-15T11:49:05.155Z,17.57
2022-09-15T11:51:36.164Z,17.63
2022-09-15T11:54:11.049Z,17.25
2022-09-15T11:56:42.754Z,17.28
2022-09-15T11:59:17.544Z,17.35
2022-09-15T12:02:07.748Z,17.14
2022-09-15T12:04:54.567Z,16.98
2022-09-15T12:07:23.888Z,16.73
2022-09-15T12:09:50.797Z,16.98
2022-09-15T12:12:22.548Z,17.16
2022-09-15T12:14:50.655Z,17.39
2022-09-15T12:17:26.132Z,17.59
2022-09-15T12:20:03.930Z,17.37
2022-09-15T12:22:56.845Z,17.44
2022-09-15T12:25:32.614Z,17.21
2022-09-15T12:28:34.220Z,17.07
2022-09-15T12:31:31.488Z,17.26
2022-09-15T12:34:05.231Z,17.23
2022-09-15T12:36:45.729Z,17.07
2022-09-15T12:39:31.487Z,16.80
2022-09-15T12:42:05.311Z,17.15
2022-09-15T12:44:52.511Z,17.10
2022-09-15T12:47:43.277Z,16.88
2022-09-15T12:50:16.187Z,16.96
2022-09-15T12:52:50.081Z,17.32
2022-09-15T12:55:27.237Z,17.57
2022-09-15T12:58:18.559Z,16.77
2022-09-15T13:01:13.985Z,17.17
2022-09-15T13:06:10.466Z,16.96
2022-09-15T13:08:39.219Z,17.29
2022-09-15T13:11:12.489Z,17.45
2022-09-15T13:13:51.631Z,17.47
2022-09-15T13:17:20.022Z,17.51
2022-09-15T13:19:49.033Z,17.74
2022-09-15T13:22:36.647Z,17.64
2022-09-15T13:25:18.266Z,17.80
2022-09-15T13:27:50.824Z,17.60
2022-09-15T13:30:45.360Z,17.98
2022-09-15T13:33:25.785Z,17.95
2022-09-15T13:35:55.571Z,18.08
2022-09-15T13:38:27.624Z,17.88
2022-09-15T13:41:31.128Z,17.97
2022-09-15T13:44:35.434Z,17.56
2022-09-15T13:47:08.112Z,17.71
2022-09-15T13:50:09.098Z,17.91
2022-09-15T13:53:02.933Z,17.62
2022-09-15T13:55:35.049Z,17.72
2022-09-15T14:00:55.763Z,17.83
2022-09-15T14:03:31.878Z,17.93
2022-09-15T14:06:03.330Z,18.28
2022-09-15T14:08:32.764Z,18.14
2022-09-15T14:11:03.808Z,18.26
2022-09-15T14:13:30.800Z,18.62
2022-09-15T14:16:02.413Z,18.49
2022-09-15T14:18:32.794Z,18.65
2022-09-15T14:21:02.139Z,18.68
2022-09-15T14:23:29.726Z,18.94
2022-09-15T14:26:00.520Z,18.74
2022-09-15T14:28:32.353Z,19.25
2022-09-15T14:31:00.415Z,19.32
2022-09-15T14:33:38.231Z,19.41
2022-09-15T14:36:18.872Z,19.53
2022-09-15T14:39:02.866Z,19.57
2022-09-15T14:41:32.481Z,19.39
2022-09-15T14:43:59.326Z,19.07
2022-09-15T14:46:36.405Z,19.07
2022-09-15T14:49:14.004Z,18.90
2022-09-15T14:51:42.342Z,18.84
2022-09-15T14:54:33.047Z,18.86
2022-09-15T14:57:01.505Z,18.94
2022-09-15T14:59:38.881Z,19.00
2022-09-15T15:02:26.751Z,18.96
2022-09-15T15:05:05.527Z,18.90
2022-09-15T15:07:34.720Z,18.84
2022-09-15T15:10:26.794Z,19.09
2022-09-15T15:12:56.381Z,18.80
2022-09-15T15:15:23.203Z,18.89
2022-09-15T15:17:54.451Z,18.84
2022-09-15T15:20:27.028Z,18.65
2022-09-15T15:23:15.603Z,18.71
2022-09-15T15:25:45.459Z,18.63
2022-09-15T15:28:42.329Z,18.73
2022-09-15T15:31:18.593Z,18.68
2022-09-15T15:33:47.116Z,18.54
2022-09-15T15:36:14.011Z,18.40
2022-09-15T15:38:47.215Z,18.38
2022-09-15T15:41:32.812Z,18.03
2022-09-15T15:44:15.902Z,18.14
2022-09-15T15:46:45.643Z,17.94
2022-09-15T15:49:13.190Z,17.95
2022-09-15T15:51:40.838Z,17.96
2022-09-15T15:54:07.609Z,17.93
2022-09-15T15:56:37.874Z,17.94
2022-09-15T15:59:05.414Z,17.62
2022-09-15T16:01:32.905Z,17.56
2022-09-15T16:04:06.020Z,17.50
2022-09-15T16:06:35.992Z,17.35
2022-09-15T16:09:03.667Z,17.41
2022-09-15T16:11:30.433Z,17.39
2022-09-15T16:13:57.735Z,17.24
2022-09-15T16:16:29.616Z,17.30
2022-09-15T16:18:56.653Z,17.20
2022-09-15T16:21:37.154Z,17.34
2022-09-15T16:24:05.357Z,17.32
2022-09-15T16:26:59.528Z,17.40
2022-09-15T16:29:30.028Z,17.47
2022-09-15T16:31:58.487Z,17.52
2022-09-15T16:34:25.796Z,17.45
2022-09-15T16:36:52.595Z,17.48
2022-09-15T16:39:44.116Z,17.39
2022-09-15T16:42:14.910Z,17.41
2022-09-15T16:44:41.996Z,17.48
2022-09-15T16:48:05.452Z,17.35
2022-09-15T16:50:33.878Z,17.23
2022-09-15T16:53:03.858Z,17.32
2022-09-15T16:55:37.239Z,17.32
2022-09-15T16:58:05.125Z,17.23
2022-09-15T17:00:34.057Z,17.34
2022-09-15T17:03:01.427Z,17.00
2022-09-15T17:05:38.509Z,16.86
2022-09-15T17:08:06.842Z,17.00
2022-09-15T17:10:33.757Z,16.76
2022-09-15T17:13:04.249Z,16.98
2022-09-15T17:15:34.106Z,17.00
2022-09-15T17:18:01.025Z,16.90
2022-09-15T17:20:33.748Z,16.66
2022-09-15T17:23:17.861Z,16.61
2022-09-15T17:25:51.348Z,16.64
2022-09-15T17:28:23.772Z,16.76
2022-09-15T17:30:52.193Z,16.64
2022-09-15T17:33:19.997Z,16.62
2022-09-15T17:35:57.319Z,16.60
2022-09-15T17:38:25.330Z,16.64
2022-09-15T17:40:59.581Z,16.62
2022-09-15T17:43:29.600Z,16.69
2022-09-15T17:46:00.572Z,16.64
2022-09-15T17:48:27.298Z,16.68
2022-09-15T17:50:54.169Z,16.74
2022-09-15T17:53:31.508Z,16.67
2022-09-15T17:56:00.877Z,16.59
2022-09-15T17:58:31.966Z,16.65
2022-09-15T18:00:59.051Z,16.50
2022-09-15T18:03:34.870Z,16.57
2022-09-15T18:06:05.315Z,16.67
2022-09-15T18:08:36.472Z,16.55
2022-09-15T18:11:05.163Z,16.37
2022-09-15T18:13:32.055Z,16.39
2022-09-15T18:16:05.079Z,16.45
2022-09-15T18:18:32.187Z,16.40
2022-09-15T18:21:01.212Z,16.34
2022-09-15T18:23:29.764Z,16.27
2022-09-15T18:25:59.742Z,16.25
2022-09-15T18:28:31.713Z,16.24
2022-09-15T18:31:03.179Z,16.15
2022-09-15T18:33:40.079Z,16.25
2022-09-15T18:36:07.861Z,16.14
2022-09-15T18:38:36.686Z,16.11
2022-09-15T18:41:07.297Z,16.21
2022-09-15T18:43:34.332Z,16.26
2022-09-15T18:46:01.565Z,16.19
2022-09-15T18:48:29.267Z,16.06
2022-09-15T18:50:56.397Z,16.01
2022-09-15T18:53:25.308Z,16.13
2022-09-15T18:55:52.258Z,16.07
2022-09-15T18:58:22.806Z,16.00
2022-09-15T19:00:53.418Z,15.96
2022-09-15T19:03:20.323Z,16.02
2022-09-15T19:05:47.217Z,15.96
2022-09-15T19:08:15.373Z,15.74
2022-09-15T19:10:44.311Z,15.60
2022-09-15T19:13:14.422Z,15.67
2022-09-15T19:15:50.312Z,15.75
2022-09-15T19:18:19.861Z,15.73
2022-09-15T19:20:46.662Z,15.65
2022-09-15T19:23:15.298Z,15.45
2022-09-15T19:25:43.046Z,15.44
2022-09-15T19:28:09.956Z,15.53
2022-09-15T19:30:37.227Z,15.53
2022-09-15T19:33:05.091Z,15.34
2022-09-15T19:35:31.864Z,15.34
2022-09-15T19:37:58.504Z,15.26
2022-09-15T19:40:25.439Z,15.30
2022-09-15T19:42:52.147Z,15.19
2022-09-15T19:45:18.973Z,15.17
2022-09-15T19:47:45.704Z,15.08
2022-09-15T19:50:12.602Z,15.10
2022-09-15T19:52:39.709Z,14.91
2022-09-15T19:55:08.080Z,14.82
2022-09-15T19:57:36.367Z,14.90
2022-09-15T20:00:05.201Z,14.90
2022-09-15T20:02:31.920Z,14.85
2022-09-15T20:04:58.672Z,14.90
2022-09-15T20:07:25.688Z,14.80
2022-09-15T20:09:53.454Z,14.74
2022-09-15T20:14:47.953Z,14.73
2022-09-15T20:17:14.630Z,14.73
2022-09-15T20:19:41.310Z,14.56
2022-09-15T20:22:08.213Z,14.66
2022-09-15T20:24:34.823Z,14.70
2022-09-15T20:27:01.428Z,14.74
2022-09-15T20:29:28.041Z,14.62
2022-09-15T20:31:54.766Z,14.67
2022-09-15T20:34:21.459Z,14.86
2022-09-15T20:36:48.169Z,14.64
2022-09-15T20:39:15.919Z,14.78
2022-09-15T20:41:46.166Z,14.74
2022-09-15T20:44:13.605Z,14.54
2022-09-15T20:46:40.600Z,14.63
2022-09-15T20:49:07.464Z,14.56
2022-09-15T20:51:43.792Z,14.54
2022-09-15T20:54:13.607Z,14.55
2022-09-15T20:56:40.770Z,14.57
2022-09-15T20:59:10.654Z,14.53
2022-09-15T21:01:39.068Z,14.57
2022-09-15T21:04:07.842Z,14.54
2022-09-15T21:06:35.329Z,14.44
2022-09-15T21:09:02.170Z,14.59
2022-09-15T21:11:29.576Z,14.65
2022-09-15T21:13:56.976Z,14.66
2022-09-15T21:16:26.318Z,14.70
2022-09-15T21:18:53.297Z,14.81
2022-09-15T21:21:22.339Z,14.63
2022-09-15T21:23:57.016Z,14.53
2022-09-15T21:26:25.387Z,14.61
2022-09-15T21:28:53.670Z,14.50
2022-09-15T21:31:23.685Z,14.53
2022-09-15T21:33:51.939Z,14.58
2022-09-15T21:36:45.959Z,14.59
2022-09-15T21:39:12.743Z,14.46
2022-09-15T21:41:39.571Z,14.52
2022-09-15T21:44:07.195Z,14.54
2022-09-15T21:46:33.859Z,14.48
2022-09-15T21:49:00.556Z,14.57
2022-09-15T21:51:28.855Z,14.45
2022-09-15T21:53:57.940Z,14.46
2022-09-15T21:56:34.306Z,14.40
2022-09-15T21:59:02.606Z,14.32
2022-09-15T22:01:32.619Z,14.30
2022-09-15T22:04:01.364Z,14.30
2022-09-15T22:06:31.722Z,14.23
2022-09-15T22:09:03.576Z,14.23
2022-09-15T22:11:30.500Z,14.22
2022-09-15T22:13:57.439Z,14.25
2022-09-15T22:16:25.367Z,14.41
2022-09-15T22:18:52.393Z,14.16
2022-09-15T22:21:21.233Z,14.02
2022-09-15T22:23:48.868Z,14.19
2022-09-15T22:26:20.767Z,14.14
2022-09-15T22:28:49.252Z,14.21
2022-09-15T22:31:19.090Z,14.31
2022-09-15T22:33:47.139Z,14.38
2022-09-15T22:36:16.315Z,14.32
2022-09-15T22:38:43.500Z,14.49
2022-09-15T22:41:12.235Z,14.54
2022-09-15T22:43:40.757Z,14.58
2022-09-15T22:46:07.893Z,14.46
2022-09-15T22:48:37.488Z,14.33
2022-09-15T22:51:06.505Z,14.53
2022-09-15T22:53:33.470Z,14.29
2022-09-15T22:56:17.518Z,14.30
2022-09-15T22:58:44.395Z,14.24
2022-09-15T23:01:14.422Z,14.05
2022-09-15T23:03:41.703Z,13.99
2022-09-15T23:06:08.522Z,14.06
2022-09-15T23:08:37.209Z,14.06
2022-09-15T23:11:06.878Z,14.04
2022-09-15T23:13:34.056Z,14.05
2022-09-15T23:16:01.208Z,13.89
2022-09-15T23:18:28.029Z,13.97
2022-09-15T23:20:57.456Z,13.99
2022-09-15T23:23:24.615Z,13.99
2022-09-15T23:25:51.425Z,14.13
2022-09-15T23:28:18.441Z,14.07
2022-09-15T23:30:45.260Z,14.01
2022-09-15T23:33:12.191Z,13.96
2022-09-15T23:35:38.898Z,13.98
2022-09-15T23:38:05.722Z,13.98
2022-09-15T23:40:33.128Z,14.05
2022-09-15T23:42:59.767Z,13.98
2022-09-15T23:45:26.429Z,14.05
2022-09-15T23:47:53.213Z,14.08
2022-09-15T23:50:19.853Z,14.14
2022-09-15T23:52:46.493Z,14.14
2022-09-15T23:55:13.517Z,14.22
2022-09-15T23:57:40.237Z,14.19
